sensor_id;sensor_type;location;lat;lon;timestamp;temperature;humidity
13123;DHT22;6627;50.920;12.050;2023-08-17T00:01:35;19.80;99.90
13123;DHT22;6627;50.920;12.050;2023-08-17T00:04:07;19.70;99.90
13123;DHT22;6627;50.920;12.050;2023-08-17T00:06:34;19.70;99.90
13123;DHT22;6627;50.920;12.050;2023-08-17T00:09:01;19.50;99.90
13123;DHT22;6627;50.920;12.050;2023-08-17T00:11:30;19.30;99.90
13123;DHT22;6627;50.920;12.050;2023-08-17T00:13:57;20.60;99.90
13123;DHT22;6627;50.920;12.050;2023-08-17T00:16:26;20.90;99.90
13123;DHT22;6627;50.920;12.050;2023-08-17T00:18:54;19.30;99.90
13123;DHT22;6627;50.920;12.050;2023-08-17T00:21:21;19.30;99.90
13123;DHT22;6627;50.920;12.050;2023-08-17T00:23:49;20.70;99.90
13123;DHT22;6627;50.920;12.050;2023-08-17T00:26:17;19.80;99.90
13123;DHT22;6627;50.920;12.050;2023-08-17T00:28:44;19.40;99.90
13123;DHT22;6627;50.920;12.050;2023-08-17T00:31:12;20.30;99.90
13123;DHT22;6627;50.920;12.050;2023-08-17T00:33:41;19.40;99.90
13123;DHT22;6627;50.920;12.050;2023-08-17T00:36:08;19.30;99.90
13123;DHT22;6627;50.920;12.050;2023-08-17T00:38:36;19.50;99.90
13123;DHT22;6627;50.920;12.050;2023-08-17T00:41:03;19.40;99.90
13123;DHT22;6627;50.920;12.050;2023-08-17T00:43:31;19.40;99.90
13123;DHT22;6627;50.920;12.050;2023-08-17T00:45:58;18.60;99.90
13123;DHT22;6627;50.920;12.050;2023-08-17T00:48:26;19.60;99.90
13123;DHT22;6627;50.920;12.050;2023-08-17T00:50:58;19.10;99.90
13123;DHT22;6627;50.920;12.050;2023-08-17T00:53:27;19.10;99.90
13123;DHT22;6627;50.920;12.050;2023-08-17T00:55:57;19.40;99.90
13123;DHT22;6627;50.920;12.050;2023-08-17T00:58:26;19.40;99.90
13123;DHT22;6627;50.920;12.050;2023-08-17T01:00:54;19.40;99.90
13123;DHT22;6627;50.920;12.050;2023-08-17T01:03:22;19.50;99.90
13123;DHT22;6627;50.920;12.050;2023-08-17T01:05:50;19.50;99.90
13123;DHT22;6627;50.920;12.050;2023-08-17T01:08:19;19.50;99.90
13123;DHT22;6627;50.920;12.050;2023-08-17T01:11:02;19.50;99.90
13123;DHT22;6627;50.920;12.050;2023-08-17T01:13:42;19.50;99.90
13123;DHT22;6627;50.920;12.050;2023-08-17T01:16:19;19.40;99.90
13123;DHT22;6627;50.920;12.050;2023-08-17T01:18:51;19.30;99.90
13123;DHT22;6627;50.920;12.050;2023-08-17T01:21:21;19.30;99.90
13123;DHT22;6627;50.920;12.050;2023-08-17T01:23:52;19.40;99.90
13123;DHT22;6627;50.920;12.050;2023-08-17T01:26:25;19.50;99.90
13123;DHT22;6627;50.920;12.050;2023-08-17T01:28:52;20.60;99.90
13123;DHT22;6627;50.920;12.050;2023-08-17T01:31:23;20.50;99.90
13123;DHT22;6627;50.920;12.050;2023-08-17T01:34:01;19.60;99.90
13123;DHT22;6627;50.920;12.050;2023-08-17T01:36:35;20.70;99.90
13123;DHT22;6627;50.920;12.050;2023-08-17T01:39:06;20.40;99.90
13123;DHT22;6627;50.920;12.050;2023-08-17T01:41:36;21.50;99.90
13123;DHT22;6627;50.920;12.050;2023-08-17T01:44:06;21.20;99.90
13123;DHT22;6627;50.920;12.050;2023-08-17T01:46:34;19.70;99.90
13123;DHT22;6627;50.920;12.050;2023-08-17T01:49:02;21.10;99.90
13123;DHT22;6627;50.920;12.050;2023-08-17T01:51:29;19.70;99.90
13123;DHT22;6627;50.920;12.050;2023-08-17T11:35:33;27.80;99.90
13123;DHT22;6627;50.920;12.050;2023-08-17T11:38:00;27.70;99.90
13123;DHT22;6627;50.920;12.050;2023-08-17T11:40:30;27.60;99.90
13123;DHT22;6627;50.920;12.050;2023-08-17T11:42:58;27.70;99.90
13123;DHT22;6627;50.920;12.050;2023-08-17T11:45:25;27.80;99.90
13123;DHT22;6627;50.920;12.050;2023-08-17T11:47:52;27.90;99.90
13123;DHT22;6627;50.920;12.050;2023-08-17T11:50:20;28.00;99.90
13123;DHT22;6627;50.920;12.050;2023-08-17T11:52:47;28.10;99.90
13123;DHT22;6627;50.920;12.050;2023-08-17T11:55:17;28.10;99.90
13123;DHT22;6627;50.920;12.050;2023-08-17T11:57:47;28.00;99.90
13123;DHT22;6627;50.920;12.050;2023-08-17T12:00:18;27.80;99.90
13123;DHT22;6627;50.920;12.050;2023-08-17T12:02:47;27.80;99.90
13123;DHT22;6627;50.920;12.050;2023-08-17T12:10:18;27.80;99.90
13123;DHT22;6627;50.920;12.050;2023-08-17T12:15:16;28.00;99.90
13123;DHT22;6627;50.920;12.050;2023-08-17T12:17:45;28.10;99.90
13123;DHT22;6627;50.920;12.050;2023-08-17T12:20:17;27.80;99.90
13123;DHT22;6627;50.920;12.050;2023-08-17T12:22:45;27.90;99.90
13123;DHT22;6627;50.920;12.050;2023-08-17T12:25:13;28.00;99.90
13123;DHT22;6627;50.920;12.050;2023-08-17T12:27:42;28.00;99.90
13123;DHT22;6627;50.920;12.050;2023-08-17T12:30:25;27.80;99.90
13123;DHT22;6627;50.920;12.050;2023-08-17T12:32:53;28.00;99.90
13123;DHT22;6627;50.920;12.050;2023-08-17T12:35:21;28.20;99.90
13123;DHT22;6627;50.920;12.050;2023-08-17T12:37:51;28.40;99.90
13123;DHT22;6627;50.920;12.050;2023-08-17T12:40:19;28.50;99.90
13123;DHT22;6627;50.920;12.050;2023-08-17T12:42:48;28.20;99.90
13123;DHT22;6627;50.920;12.050;2023-08-17T12:45:17;28.30;99.90
13123;DHT22;6627;50.920;12.050;2023-08-17T12:47:45;28.40;99.90
13123;DHT22;6627;50.920;12.050;2023-08-17T12:50:12;28.40;99.90
13123;DHT22;6627;50.920;12.050;2023-08-17T12:52:39;28.50;99.90
13123;DHT22;6627;50.920;12.050;2023-08-17T12:55:07;28.60;99.90
13123;DHT22;6627;50.920;12.050;2023-08-17T12:57:35;28.30;99.90
13123;DHT22;6627;50.920;12.050;2023-08-17T13:00:03;27.90;99.90
13123;DHT22;6627;50.920;12.050;2023-08-17T13:02:33;27.50;99.90
13123;DHT22;6627;50.920;12.050;2023-08-17T13:05:00;27.20;99.90
13123;DHT22;6627;50.920;12.050;2023-08-17T13:07:28;26.90;99.90
13123;DHT22;6627;50.920;12.050;2023-08-17T13:09:58;26.90;99.90
13123;DHT22;6627;50.920;12.050;2023-08-17T13:12:26;26.70;99.90
13123;DHT22;6627;50.920;12.050;2023-08-17T13:14:53;26.70;99.90
13123;DHT22;6627;50.920;12.050;2023-08-17T13:17:20;26.60;99.90
13123;DHT22;6627;50.920;12.050;2023-08-17T13:19:49;26.40;99.90
13123;DHT22;6627;50.920;12.050;2023-08-17T13:22:17;26.40;99.90
13123;DHT22;6627;50.920;12.050;2023-08-17T13:24:44;26.50;99.90
13123;DHT22;6627;50.920;12.050;2023-08-17T13:27:12;26.30;99.90
13123;DHT22;6627;50.920;12.050;2023-08-17T13:29:39;26.10;99.90
13123;DHT22;6627;50.920;12.050;2023-08-17T13:32:06;26.10;99.90
13123;DHT22;6627;50.920;12.050;2023-08-17T13:34:35;26.00;99.90
13123;DHT22;6627;50.920;12.050;2023-08-17T13:37:03;26.10;99.90
13123;DHT22;6627;50.920;12.050;2023-08-17T13:39:31;26.00;99.90
13123;DHT22;6627;50.920;12.050;2023-08-17T13:41:59;26.00;99.90
13123;DHT22;6627;50.920;12.050;2023-08-17T13:44:26;26.10;99.90
13123;DHT22;6627;50.920;12.050;2023-08-17T13:46:53;26.10;99.90
13123;DHT22;6627;50.920;12.050;2023-08-17T13:49:21;25.90;99.90
13123;DHT22;6627;50.920;12.050;2023-08-17T13:52:09;25.60;99.90
13123;DHT22;6627;50.920;12.050;2023-08-17T13:54:38;25.50;99.90
13123;DHT22;6627;50.920;12.050;2023-08-17T13:57:06;25.40;99.90
13123;DHT22;6627;50.920;12.050;2023-08-17T13:59:34;25.20;99.90
13123;DHT22;6627;50.920;12.050;2023-08-17T14:02:02;25.30;99.90
13123;DHT22;6627;50.920;12.050;2023-08-17T14:04:30;25.20;99.90
13123;DHT22;6627;50.920;12.050;2023-08-17T14:06:57;25.20;99.90
13123;DHT22;6627;50.920;12.050;2023-08-17T14:09:26;25.20;99.90
13123;DHT22;6627;50.920;12.050;2023-08-17T14:11:53;25.00;99.90
13123;DHT22;6627;50.920;12.050;2023-08-17T14:14:21;25.00;99.90
13123;DHT22;6627;50.920;12.050;2023-08-17T14:16:48;25.00;99.90
13123;DHT22;6627;50.920;12.050;2023-08-17T14:19:16;25.00;99.90
13123;DHT22;6627;50.920;12.050;2023-08-17T14:21:43;25.10;99.90
13123;DHT22;6627;50.920;12.050;2023-08-17T14:24:10;25.00;99.90
13123;DHT22;6627;50.920;12.050;2023-08-17T14:26:39;24.90;99.90
13123;DHT22;6627;50.920;12.050;2023-08-17T14:29:06;24.80;99.90
13123;DHT22;6627;50.920;12.050;2023-08-17T14:31:34;24.80;99.90
13123;DHT22;6627;50.920;12.050;2023-08-17T14:34:01;24.70;99.90
13123;DHT22;6627;50.920;12.050;2023-08-17T14:36:29;24.70;99.90
13123;DHT22;6627;50.920;12.050;2023-08-17T14:38:57;24.80;99.90
13123;DHT22;6627;50.920;12.050;2023-08-17T14:41:24;24.90;99.90
13123;DHT22;6627;50.920;12.050;2023-08-17T14:43:58;24.80;99.90
13123;DHT22;6627;50.920;12.050;2023-08-17T14:46:26;24.70;99.90
13123;DHT22;6627;50.920;12.050;2023-08-17T14:48:53;24.70;99.90
13123;DHT22;6627;50.920;12.050;2023-08-17T14:51:21;24.70;99.90
13123;DHT22;6627;50.920;12.050;2023-08-17T14:53:48;24.60;99.90
13123;DHT22;6627;50.920;12.050;2023-08-17T14:56:15;24.60;99.90
13123;DHT22;6627;50.920;12.050;2023-08-17T14:58:43;24.70;99.90
13123;DHT22;6627;50.920;12.050;2023-08-17T15:01:11;24.80;99.90
13123;DHT22;6627;50.920;12.050;2023-08-17T15:03:39;24.80;99.90
13123;DHT22;6627;50.920;12.050;2023-08-17T15:06:06;24.70;99.90
13123;DHT22;6627;50.920;12.050;2023-08-17T15:08:34;24.80;99.90
13123;DHT22;6627;50.920;12.050;2023-08-17T15:11:01;24.80;99.90
13123;DHT22;6627;50.920;12.050;2023-08-17T15:13:29;24.60;99.90
13123;DHT22;6627;50.920;12.050;2023-08-17T15:15:56;24.70;99.90
13123;DHT22;6627;50.920;12.050;2023-08-17T15:18:25;24.80;99.90
13123;DHT22;6627;50.920;12.050;2023-08-17T15:20:52;24.80;99.90
13123;DHT22;6627;50.920;12.050;2023-08-17T15:23:19;24.50;99.90
13123;DHT22;6627;50.920;12.050;2023-08-17T15:25:47;24.40;99.90
13123;DHT22;6627;50.920;12.050;2023-08-17T15:28:14;24.40;99.90
13123;DHT22;6627;50.920;12.050;2023-08-17T15:30:41;24.60;99.90
13123;DHT22;6627;50.920;12.050;2023-08-17T15:33:09;24.70;99.90
13123;DHT22;6627;50.920;12.050;2023-08-17T15:35:38;24.60;99.90
13123;DHT22;6627;50.920;12.050;2023-08-17T15:38:07;24.60;99.90
13123;DHT22;6627;50.920;12.050;2023-08-17T15:40:34;24.30;99.90
13123;DHT22;6627;50.920;12.050;2023-08-17T15:43:01;24.20;99.90
13123;DHT22;6627;50.920;12.050;2023-08-17T15:45:28;24.40;99.90
13123;DHT22;6627;50.920;12.050;2023-08-17T15:47:56;24.40;99.90
13123;DHT22;6627;50.920;12.050;2023-08-17T15:50:24;24.10;99.90
13123;DHT22;6627;50.920;12.050;2023-08-17T15:52:52;23.90;99.90
13123;DHT22;6627;50.920;12.050;2023-08-17T15:55:19;23.90;99.90
13123;DHT22;6627;50.920;12.050;2023-08-17T15:57:47;23.80;99.90
13123;DHT22;6627;50.920;12.050;2023-08-17T16:00:14;23.50;99.90
13123;DHT22;6627;50.920;12.050;2023-08-17T16:02:42;23.00;99.90
13123;DHT22;6627;50.920;12.050;2023-08-17T16:05:09;22.90;99.90
13123;DHT22;6627;50.920;12.050;2023-08-17T16:07:37;22.30;99.90
13123;DHT22;6627;50.920;12.050;2023-08-17T16:10:06;22.00;99.90
13123;DHT22;6627;50.920;12.050;2023-08-17T16:12:34;21.90;99.90
13123;DHT22;6627;50.920;12.050;2023-08-17T16:15:01;21.80;99.90
13123;DHT22;6627;50.920;12.050;2023-08-17T16:17:28;21.80;99.90
13123;DHT22;6627;50.920;12.050;2023-08-17T16:19:56;21.70;99.90
13123;DHT22;6627;50.920;12.050;2023-08-17T16:22:23;21.70;99.90
13123;DHT22;6627;50.920;12.050;2023-08-17T16:24:50;21.70;99.90
13123;DHT22;6627;50.920;12.050;2023-08-17T16:27:19;21.70;99.90
13123;DHT22;6627;50.920;12.050;2023-08-17T16:29:47;21.70;99.90
13123;DHT22;6627;50.920;12.050;2023-08-17T16:32:14;21.90;99.90
13123;DHT22;6627;50.920;12.050;2023-08-17T16:34:42;21.90;99.90
13123;DHT22;6627;50.920;12.050;2023-08-17T16:37:10;21.90;99.90
13123;DHT22;6627;50.920;12.050;2023-08-17T16:39:37;21.80;99.90
13123;DHT22;6627;50.920;12.050;2023-08-17T16:42:05;21.80;99.90
13123;DHT22;6627;50.920;12.050;2023-08-17T16:47:02;22.00;99.90
13123;DHT22;6627;50.920;12.050;2023-08-17T16:49:30;22.00;99.90
13123;DHT22;6627;50.920;12.050;2023-08-17T16:51:58;22.10;99.90
13123;DHT22;6627;50.920;12.050;2023-08-17T16:56:53;21.70;99.90
13123;DHT22;6627;50.920;12.050;2023-08-17T16:59:21;21.60;99.90
13123;DHT22;6627;50.920;12.050;2023-08-17T17:01:49;21.20;99.90
13123;DHT22;6627;50.920;12.050;2023-08-17T17:04:17;20.80;99.90
13123;DHT22;6627;50.920;12.050;2023-08-17T17:06:44;20.70;99.90
13123;DHT22;6627;50.920;12.050;2023-08-17T17:09:11;20.50;99.90
13123;DHT22;6627;50.920;12.050;2023-08-17T17:11:39;20.50;99.90
13123;DHT22;6627;50.920;12.050;2023-08-17T17:14:07;20.80;99.90
13123;DHT22;6627;50.920;12.050;2023-08-17T17:16:34;20.60;99.90
13123;DHT22;6627;50.920;12.050;2023-08-17T17:19:03;20.70;99.90
13123;DHT22;6627;50.920;12.050;2023-08-17T17:21:31;20.60;99.90
13123;DHT22;6627;50.920;12.050;2023-08-17T17:23:59;20.40;99.90
13123;DHT22;6627;50.920;12.050;2023-08-17T17:26:26;20.20;99.90
13123;DHT22;6627;50.920;12.050;2023-08-17T17:28:54;20.20;99.90
13123;DHT22;6627;50.920;12.050;2023-08-17T17:31:21;20.30;99.90
13123;DHT22;6627;50.920;12.050;2023-08-17T17:33:48;20.40;99.90
13123;DHT22;6627;50.920;12.050;2023-08-17T17:36:17;20.20;99.90
13123;DHT22;6627;50.920;12.050;2023-08-17T17:38:45;20.00;99.90
13123;DHT22;6627;50.920;12.050;2023-08-17T17:41:12;19.90;99.90
13123;DHT22;6627;50.920;12.050;2023-08-17T17:43:40;19.80;99.90
13123;DHT22;6627;50.920;12.050;2023-08-17T17:46:08;19.80;99.90
13123;DHT22;6627;50.920;12.050;2023-08-17T17:48:35;19.80;99.90
13123;DHT22;6627;50.920;12.050;2023-08-17T17:51:03;19.90;99.90
13123;DHT22;6627;50.920;12.050;2023-08-17T17:53:32;19.80;99.90
13123;DHT22;6627;50.920;12.050;2023-08-17T17:56:00;20.00;99.90
13123;DHT22;6627;50.920;12.050;2023-08-17T17:58:27;20.00;99.90
13123;DHT22;6627;50.920;12.050;2023-08-17T18:00:55;19.90;99.90
13123;DHT22;6627;50.920;12.050;2023-08-17T18:03:23;19.90;99.90
13123;DHT22;6627;50.920;12.050;2023-08-17T18:05:50;19.80;99.90
13123;DHT22;6627;50.920;12.050;2023-08-17T18:08:18;19.70;99.90
13123;DHT22;6627;50.920;12.050;2023-08-17T18:10:47;19.60;99.90
13123;DHT22;6627;50.920;12.050;2023-08-17T18:13:14;19.70;99.90
13123;DHT22;6627;50.920;12.050;2023-08-17T18:15:42;19.70;99.90
13123;DHT22;6627;50.920;12.050;2023-08-17T18:18:09;19.80;99.90
13123;DHT22;6627;50.920;12.050;2023-08-17T18:20:36;19.90;99.90
13123;DHT22;6627;50.920;12.050;2023-08-17T18:23:04;19.70;99.90
13123;DHT22;6627;50.920;12.050;2023-08-17T18:25:32;19.60;99.90
13123;DHT22;6627;50.920;12.050;2023-08-17T18:28:01;19.50;99.90
13123;DHT22;6627;50.920;12.050;2023-08-17T18:30:28;19.60;99.90
13123;DHT22;6627;50.920;12.050;2023-08-17T18:32:57;19.60;99.90
13123;DHT22;6627;50.920;12.050;2023-08-17T18:35:24;19.60;99.90
13123;DHT22;6627;50.920;12.050;2023-08-17T18:37:52;19.60;99.90
13123;DHT22;6627;50.920;12.050;2023-08-17T18:40:19;19.60;99.90
13123;DHT22;6627;50.920;12.050;2023-08-17T18:42:48;19.50;99.90
13123;DHT22;6627;50.920;12.050;2023-08-17T18:45:18;19.40;99.90
13123;DHT22;6627;50.920;12.050;2023-08-17T18:47:45;19.50;99.90
13123;DHT22;6627;50.920;12.050;2023-08-17T18:50:13;19.50;99.90
13123;DHT22;6627;50.920;12.050;2023-08-17T18:52:41;19.50;99.90
13123;DHT22;6627;50.920;12.050;2023-08-17T18:55:09;19.40;99.90
13123;DHT22;6627;50.920;12.050;2023-08-17T18:57:38;19.50;99.90
13123;DHT22;6627;50.920;12.050;2023-08-17T19:00:07;19.60;99.90
13123;DHT22;6627;50.920;12.050;2023-08-17T19:02:39;19.50;99.90
13123;DHT22;6627;50.920;12.050;2023-08-17T19:05:07;19.40;99.90
13123;DHT22;6627;50.920;12.050;2023-08-17T19:07:35;19.30;99.90
13123;DHT22;6627;50.920;12.050;2023-08-17T19:10:03;19.50;99.90
13123;DHT22;6627;50.920;12.050;2023-08-17T19:12:31;19.60;99.90
13123;DHT22;6627;50.920;12.050;2023-08-17T19:14:58;19.70;99.90
13123;DHT22;6627;50.920;12.050;2023-08-17T19:17:25;19.70;99.90
13123;DHT22;6627;50.920;12.050;2023-08-17T19:19:54;19.70;99.90
13123;DHT22;6627;50.920;12.050;2023-08-17T19:22:21;19.70;99.90
13123;DHT22;6627;50.920;12.050;2023-08-17T19:24:49;19.60;99.90
13123;DHT22;6627;50.920;12.050;2023-08-17T19:27:16;19.50;99.90
13123;DHT22;6627;50.920;12.050;2023-08-17T19:29:44;19.60;99.90
13123;DHT22;6627;50.920;12.050;2023-08-17T19:32:11;19.50;99.90
13123;DHT22;6627;50.920;12.050;2023-08-17T19:34:39;19.30;99.90
13123;DHT22;6627;50.920;12.050;2023-08-17T19:37:08;19.40;99.90
13123;DHT22;6627;50.920;12.050;2023-08-17T19:39:42;19.50;99.90
13123;DHT22;6627;50.920;12.050;2023-08-17T19:42:09;19.50;99.90
13123;DHT22;6627;50.920;12.050;2023-08-17T19:44:37;19.30;99.90
13123;DHT22;6627;50.920;12.050;2023-08-17T19:47:05;19.20;99.90
13123;DHT22;6627;50.920;12.050;2023-08-17T19:49:33;19.20;99.90
13123;DHT22;6627;50.920;12.050;2023-08-17T19:52:00;19.20;99.90
13123;DHT22;6627;50.920;12.050;2023-08-17T19:54:29;19.30;99.90
13123;DHT22;6627;50.920;12.050;2023-08-17T19:56:57;19.40;99.90
13123;DHT22;6627;50.920;12.050;2023-08-17T19:59:24;19.40;99.90
13123;DHT22;6627;50.920;12.050;2023-08-17T20:16:38;19.50;99.90
13123;DHT22;6627;50.920;12.050;2023-08-17T20:19:05;19.50;99.90
13123;DHT22;6627;50.920;12.050;2023-08-17T20:21:34;19.50;99.90
13123;DHT22;6627;50.920;12.050;2023-08-17T20:24:01;19.50;99.90
13123;DHT22;6627;50.920;12.050;2023-08-17T20:26:30;19.50;99.90
13123;DHT22;6627;50.920;12.050;2023-08-17T20:28:59;19.50;99.90
13123;DHT22;6627;50.920;12.050;2023-08-17T20:31:26;19.40;99.90
13123;DHT22;6627;50.920;12.050;2023-08-17T20:33:55;19.40;99.90
13123;DHT22;6627;50.920;12.050;2023-08-17T20:36:22;19.30;99.90
13123;DHT22;6627;50.920;12.050;2023-08-17T20:38:49;19.40;99.90
13123;DHT22;6627;50.920;12.050;2023-08-17T20:41:17;19.40;99.90
13123;DHT22;6627;50.920;12.050;2023-08-17T20:43:45;19.30;99.90
13123;DHT22;6627;50.920;12.050;2023-08-17T20:46:14;19.30;99.90
13123;DHT22;6627;50.920;12.050;2023-08-17T20:48:41;19.30;99.90
13123;DHT22;6627;50.920;12.050;2023-08-17T20:51:09;19.40;99.90
13123;DHT22;6627;50.920;12.050;2023-08-17T20:53:36;19.30;99.90
13123;DHT22;6627;50.920;12.050;2023-08-17T20:56:03;19.30;99.90
13123;DHT22;6627;50.920;12.050;2023-08-17T20:58:30;19.30;99.90
13123;DHT22;6627;50.920;12.050;2023-08-17T21:00:58;19.30;99.90
13123;DHT22;6627;50.920;12.050;2023-08-17T21:03:28;19.30;99.90
13123;DHT22;6627;50.920;12.050;2023-08-17T21:06:02;19.30;99.90
13123;DHT22;6627;50.920;12.050;2023-08-17T21:08:29;19.20;99.90
13123;DHT22;6627;50.920;12.050;2023-08-17T21:10:57;19.20;99.90
13123;DHT22;6627;50.920;12.050;2023-08-17T21:13:24;19.20;99.90
13123;DHT22;6627;50.920;12.050;2023-08-17T21:16:01;19.20;99.90
13123;DHT22;6627;50.920;12.050;2023-08-17T21:18:31;19.20;99.90
13123;DHT22;6627;50.920;12.050;2023-08-17T21:20:59;19.20;99.90
13123;DHT22;6627;50.920;12.050;2023-08-17T21:23:27;19.30;99.90
13123;DHT22;6627;50.920;12.050;2023-08-17T21:25:56;19.40;99.90
13123;DHT22;6627;50.920;12.050;2023-08-17T21:28:24;19.50;99.90
13123;DHT22;6627;50.920;12.050;2023-08-17T21:30:52;19.60;99.90
13123;DHT22;6627;50.920;12.050;2023-08-17T21:33:26;19.50;99.90
13123;DHT22;6627;50.920;12.050;2023-08-17T21:35:56;19.50;99.90
13123;DHT22;6627;50.920;12.050;2023-08-17T21:38:23;19.50;99.90
13123;DHT22;6627;50.920;12.050;2023-08-17T21:40:55;19.40;99.90
13123;DHT22;6627;50.920;12.050;2023-08-17T21:43:23;19.50;99.90
13123;DHT22;6627;50.920;12.050;2023-08-17T21:45:53;19.60;99.90
13123;DHT22;6627;50.920;12.050;2023-08-17T21:48:22;19.60;99.90
13123;DHT22;6627;50.920;12.050;2023-08-17T21:50:50;19.60;99.90
13123;DHT22;6627;50.920;12.050;2023-08-17T21:53:19;19.50;99.90
13123;DHT22;6627;50.920;12.050;2023-08-17T21:55:48;19.60;99.90
13123;DHT22;6627;50.920;12.050;2023-08-17T21:58:16;19.60;99.90
13123;DHT22;6627;50.920;12.050;2023-08-17T22:00:44;19.50;99.90
13123;DHT22;6627;50.920;12.050;2023-08-17T22:03:13;19.50;99.90
13123;DHT22;6627;50.920;12.050;2023-08-17T22:05:44;19.60;99.90
13123;DHT22;6627;50.920;12.050;2023-08-17T22:08:13;19.60;99.90
13123;DHT22;6627;50.920;12.050;2023-08-17T22:10:43;19.60;99.90
13123;DHT22;6627;50.920;12.050;2023-08-17T22:13:12;19.60;99.90
13123;DHT22;6627;50.920;12.050;2023-08-17T22:15:40;19.50;99.90
13123;DHT22;6627;50.920;12.050;2023-08-17T22:18:07;19.40;99.90
13123;DHT22;6627;50.920;12.050;2023-08-17T22:20:38;19.30;99.90
13123;DHT22;6627;50.920;12.050;2023-08-17T22:23:07;19.30;99.90
13123;DHT22;6627;50.920;12.050;2023-08-17T22:25:34;19.30;99.90
13123;DHT22;6627;50.920;12.050;2023-08-17T22:30:31;19.30;99.90
13123;DHT22;6627;50.920;12.050;2023-08-17T22:32:59;19.30;99.90
13123;DHT22;6627;50.920;12.050;2023-08-17T22:35:28;19.30;99.90
13123;DHT22;6627;50.920;12.050;2023-08-17T22:37:55;19.30;99.90
13123;DHT22;6627;50.920;12.050;2023-08-17T22:40:23;19.20;99.90
13123;DHT22;6627;50.920;12.050;2023-08-17T22:42:50;19.20;99.90
13123;DHT22;6627;50.920;12.050;2023-08-17T22:47:47;19.30;99.90
13123;DHT22;6627;50.920;12.050;2023-08-17T22:50:14;19.30;99.90
13123;DHT22;6627;50.920;12.050;2023-08-17T22:52:41;19.30;99.90
13123;DHT22;6627;50.920;12.050;2023-08-17T22:55:09;19.50;99.90
13123;DHT22;6627;50.920;12.050;2023-08-17T22:57:36;19.40;99.90
13123;DHT22;6627;50.920;12.050;2023-08-17T23:00:04;19.30;99.90
13123;DHT22;6627;50.920;12.050;2023-08-17T23:02:34;19.30;99.90
13123;DHT22;6627;50.920;12.050;2023-08-17T23:05:01;19.30;99.90
13123;DHT22;6627;50.920;12.050;2023-08-17T23:07:29;19.20;99.90
13123;DHT22;6627;50.920;12.050;2023-08-17T23:09:56;19.20;99.90
13123;DHT22;6627;50.920;12.050;2023-08-17T23:12:23;19.30;99.90
13123;DHT22;6627;50.920;12.050;2023-08-17T23:14:50;19.30;99.90
13123;DHT22;6627;50.920;12.050;2023-08-17T23:17:18;19.40;99.90
13123;DHT22;6627;50.920;12.050;2023-08-17T23:19:46;19.30;99.90
13123;DHT22;6627;50.920;12.050;2023-08-17T23:22:13;19.20;99.90
13123;DHT22;6627;50.920;12.050;2023-08-17T23:24:41;19.10;99.90
13123;DHT22;6627;50.920;12.050;2023-08-17T23:27:09;19.00;99.90
13123;DHT22;6627;50.920;12.050;2023-08-17T23:29:36;19.00;99.90
13123;DHT22;6627;50.920;12.050;2023-08-17T23:32:05;18.90;99.90
13123;DHT22;6627;50.920;12.050;2023-08-17T23:34:33;18.90;99.90
13123;DHT22;6627;50.920;12.050;2023-08-17T23:37:02;18.80;99.90
13123;DHT22;6627;50.920;12.050;2023-08-17T23:39:30;18.80;99.90
13123;DHT22;6627;50.920;12.050;2023-08-17T23:41:57;18.90;99.90
13123;DHT22;6627;50.920;12.050;2023-08-17T23:44:24;19.00;99.90
13123;DHT22;6627;50.920;12.050;2023-08-17T23:46:52;18.90;99.90
13123;DHT22;6627;50.920;12.050;2023-08-17T23:49:19;18.80;99.90
13123;DHT22;6627;50.920;12.050;2023-08-17T23:51:46;18.80;99.90
13123;DHT22;6627;50.920;12.050;2023-08-17T23:54:15;18.70;99.90
13123;DHT22;6627;50.920;12.050;2023-08-17T23:56:42;18.70;99.90
13123;DHT22;6627;50.920;12.050;2023-08-17T23:59:09;18.70;99.90
